METAR és
SPECI
METAR LHBP 281300Z 21008KT 120V260 CAVOK 32/18 Q1019 NOSIG=
METAR LHBP 281230Z 17009KT 090V260 CAVOK 32/19 Q1019 NOSIG=
METAR LHBP 281200Z 23007KT 180V270 CAVOK 32/18 Q1019 NOSIG=
METAR LHBP 281130Z 23007KT 090V250 CAVOK 31/18 Q1019 NOSIG=
METAR LHBP 281100Z 19009KT 090V260 CAVOK 31/18 Q1019 NOSIG=
METAR LHBP 281030Z 14006KT 090V240 CAVOK 30/18 Q1019 NOSIG=
TAF
TAF LHBP 281100Z 2812/2912 22009KT CAVOK BECMG 2816/2818 VRB03KT TEMPO 2903/2905 MIFG=
GAMET
FAHU41 LHBM 281100
LHCC GAMET VALID 281200/281800 LHBP-
BUDAPEST FIR BLW FL100
SECN I
HAZARDOUS WX NIL=
OMSZ: 2015. augusztus 28. 12:32 (10:32  UTC)
[FAHU41]
AIRMET
Nincs érvényes távirat! 
WAHU41 LHBM 221635
LHCC AIRMET 02 VALID 221635/221800 LHBP-
LHCC BUDAPEST FIR ISOL TS OBS AND FCST N OF LINE N4744
E01820 - N4747 E01907 - N4812 E01947 TOP ABV FL100 STNR WKN=
OMSZ: 2015. augusztus 22. 18:38 (16:38  UTC)
[WAHU41]
SIGMET
Nincs érvényes távirat! 
WSHU31 LHBM 250500
LHCC SIGMET 01 VALID 250500/250800 LHBP-
LHCC BUDAPEST FIR EMBD TS FCST SW OF LINE N4717 E01628 -
N4709 E01845 - N4611 E01942 TOP FL300 MOV NE NC=
OMSZ: 2015. augusztus 25. 07:06 (05:06  UTC)
[WSHU31]
SIGMET
Vulkáni hamufelhő
Nincs érvényes távirat! 
WVHU31 LHBM 271515 CCA
LHCC SIGMET 03 VALID 271515/271800 LHBP-
LHCC BUDAPEST FIR EXERCISE VOLCEX12/01
CNL VA SIGMET 02 271200/271800
EXERCISE EXERCISE EXERCISE VOLCEX12/01=
OMSZ: 2015. április 14. 15:15 (13:15  UTC)
[WVHU31]